KSUU/SUU METAR and TAF weather

Enter ICAO airport designator
Station Type Date Time Source
KSUU METAR 2020/04/04 19:58 UTC NOAA

KSUU 041958Z AUTO 19014KT 10SM OVC022 14/10 A2986 RMK AO2 RAE19 OVC V BKN CIG 020 RWY03R CIG 020 RWY21R SLP118 P0000 T01350095 $


Station Type Date Time Source
KSUU Decoded METAR 2020/04/04 19:58 UTC NOAA

Fairfield / Travis Air Force Base, CA, United States (KSUU) 38-16N 121-57W 22M
Apr 04, 2020 - 03:58 PM EDT / 2020.04.04 1958 UTC
Wind: from the S (190 degrees) at 16 MPH (14 KT):0
Visibility: 10 mile(s):0
Sky conditions: overcast
Precipitation last hour: A trace
Temperature: 56.3 F (13.5 C)
Dew Point: 49.1 F (9.5 C)
Relative Humidity: 76%
Pressure (altimeter): 29.86 in. Hg (1011 hPa)
ob: KSUU 041958Z AUTO 19014KT 10SM OVC022 14/10 A2986 RMK AO2 RAE19 OVC V BKN CIG 020 RWY03R CIG 020 RWY21R SLP118 P0000 T01350095
cycle: 20

Station Type Date Time Source
KSUU TAF 2020/04/04 19:03 UTC NOAA

TAF KSUU 041855Z 0419/0601 23015G25KT 9000 -SHRA OVC010 QNH2977INS
BECMG 0502/0503 23012KT 9000 -SHRA BKN020 OVC035 QNH2961INS
BECMG 0516/0517 23015G25KT 9000 -SHRA VCTS BKN020 OVC035CB QNH2961INS TX15/0422Z TN04/0514Z

Example: see airport list